createdAt,value
2023-02-11T00:01:33.322Z,33.57
2023-02-11T00:04:00.583Z,37.50
2023-02-11T00:06:28.538Z,33.63
2023-02-11T00:08:55.927Z,39.53
2023-02-11T00:11:25.499Z,34.27
2023-02-11T00:13:52.456Z,32.97
2023-02-11T00:16:20.582Z,36.63
2023-02-11T00:18:47.881Z,35.27
2023-02-11T00:21:16.825Z,33.53
2023-02-11T00:23:44.194Z,36.73
2023-02-11T00:26:18.188Z,37.17
2023-02-11T00:28:45.332Z,37.50
2023-02-11T00:31:13.457Z,35.67
2023-02-11T00:33:40.480Z,37.30
2023-02-11T00:36:09.523Z,38.43
2023-02-11T00:38:36.101Z,33.80
2023-02-11T00:41:02.784Z,32.63
2023-02-11T00:43:29.320Z,36.67
2023-02-11T00:45:55.953Z,34.30
2023-02-11T00:48:22.511Z,34.60
2023-02-11T00:50:49.098Z,34.30
2023-02-11T00:53:15.629Z,37.60
2023-02-11T00:55:42.187Z,37.13
2023-02-11T00:58:08.736Z,36.03
2023-02-11T01:00:35.313Z,34.07
2023-02-11T01:03:01.867Z,36.03
2023-02-11T01:05:28.854Z,36.23
2023-02-11T01:07:55.486Z,35.50
2023-02-11T01:10:22.038Z,36.47
2023-02-11T01:12:48.625Z,31.57
2023-02-11T01:15:17.572Z,31.23
2023-02-11T01:17:44.337Z,34.33
2023-02-11T01:20:19.218Z,33.50
2023-02-11T01:22:45.806Z,35.67
2023-02-11T01:25:12.397Z,39.17
2023-02-11T01:27:39.527Z,38.70
2023-02-11T01:30:08.261Z,33.93
2023-02-11T01:32:35.225Z,34.07
2023-02-11T01:35:02.844Z,30.70
2023-02-11T01:37:29.468Z,34.00
2023-02-11T01:39:56.001Z,37.07
2023-02-11T01:42:24.006Z,37.77
2023-02-11T01:44:52.464Z,32.80
2023-02-11T01:47:20.684Z,35.67
2023-02-11T01:49:57.795Z,35.23
2023-02-11T01:52:36.824Z,37.20
2023-02-11T01:55:28.714Z,36.93
2023-02-11T01:57:59.206Z,32.43
2023-02-11T02:00:36.687Z,39.30
2023-02-11T02:03:20.086Z,33.27
2023-02-11T02:06:01.981Z,34.63
2023-02-11T02:08:38.427Z,37.83
2023-02-11T02:11:05.306Z,34.63
2023-02-11T02:13:34.248Z,36.67
2023-02-11T02:16:04.004Z,32.77
2023-02-11T02:19:08.282Z,34.73
2023-02-11T02:22:00.168Z,34.70
2023-02-11T02:24:57.807Z,35.67
2023-02-11T02:27:35.975Z,33.53
2023-02-11T02:30:40.219Z,39.37
2023-02-11T02:33:22.512Z,36.03
2023-02-11T02:36:17.139Z,37.83
2023-02-11T02:38:54.353Z,35.43
2023-02-11T02:41:27.169Z,39.20
2023-02-11T02:43:54.319Z,34.23
2023-02-11T02:46:26.560Z,38.33
2023-02-11T02:48:54.349Z,35.83
2023-02-11T02:51:41.600Z,34.17
2023-02-11T02:54:28.266Z,38.40
2023-02-11T02:56:56.404Z,39.07
2023-02-11T02:59:41.556Z,37.50
2023-02-11T03:02:25.992Z,36.97
2023-02-11T03:05:01.204Z,40.07
2023-02-11T03:07:39.951Z,37.13
2023-02-11T03:10:15.653Z,36.87
2023-02-11T03:12:43.744Z,37.60
2023-02-11T03:15:12.618Z,39.03
2023-02-11T03:17:42.535Z,40.73
2023-02-11T03:20:12.936Z,39.67
2023-02-11T03:23:16.589Z,40.13
2023-02-11T03:25:53.085Z,39.23
2023-02-11T03:28:42.441Z,39.60
2023-02-11T03:31:36.846Z,42.60
2023-02-11T03:34:08.727Z,40.63
2023-02-11T03:36:59.825Z,35.80
2023-02-11T03:39:33.250Z,36.77
2023-02-11T03:42:02.620Z,40.13
2023-02-11T03:44:34.865Z,41.27
2023-02-11T03:47:04.948Z,39.20
2023-02-11T03:49:33.500Z,40.97
2023-02-11T03:52:02.531Z,39.53
2023-02-11T03:54:30.990Z,41.83
2023-02-11T03:57:00.718Z,39.53
2023-02-11T03:59:28.089Z,36.97
2023-02-11T04:01:55.204Z,38.93
2023-02-11T04:04:21.912Z,38.70
2023-02-11T04:06:48.483Z,39.67
2023-02-11T04:09:15.186Z,41.20
2023-02-11T04:11:41.846Z,40.07
2023-02-11T04:14:08.434Z,40.20
2023-02-11T04:16:36.037Z,41.07
2023-02-11T04:19:02.685Z,42.60
2023-02-11T04:21:29.337Z,39.70
2023-02-11T04:23:55.897Z,40.97
2023-02-11T04:26:22.486Z,44.90
2023-02-11T04:28:49.041Z,39.10
2023-02-11T04:31:15.683Z,39.07
2023-02-11T04:33:42.331Z,41.10
2023-02-11T04:36:09.013Z,43.07
2023-02-11T04:38:35.593Z,37.17
2023-02-11T04:41:02.170Z,40.90
2023-02-11T04:43:28.773Z,44.63
2023-02-11T04:45:58.782Z,43.03
2023-02-11T04:48:25.721Z,42.17
2023-02-11T04:50:52.301Z,46.40
2023-02-11T04:53:18.990Z,44.17
2023-02-11T04:55:48.386Z,44.77
2023-02-11T04:58:15.107Z,45.43
2023-02-11T05:00:41.873Z,45.73
2023-02-11T05:03:08.481Z,48.00
2023-02-11T05:05:37.741Z,43.33
2023-02-11T05:08:04.501Z,44.67
2023-02-11T05:10:31.113Z,49.57
2023-02-11T05:12:57.843Z,47.13
2023-02-11T05:15:24.575Z,44.43
2023-02-11T05:17:51.169Z,49.13
2023-02-11T05:20:17.831Z,49.87
2023-02-11T05:22:44.443Z,49.53
2023-02-11T05:25:10.991Z,49.50
2023-02-11T05:27:37.683Z,47.93
2023-02-11T05:30:05.883Z,49.67
2023-02-11T05:32:32.580Z,46.07
2023-02-11T05:34:59.199Z,52.83
2023-02-11T05:37:25.830Z,47.53
2023-02-11T05:39:52.398Z,48.10
2023-02-11T05:42:19.049Z,48.83
2023-02-11T05:44:45.727Z,48.53
2023-02-11T05:47:12.282Z,50.70
2023-02-11T05:49:39.008Z,52.27
2023-02-11T05:52:05.619Z,49.03
2023-02-11T05:54:32.248Z,51.97
2023-02-11T05:56:58.819Z,50.37
2023-02-11T05:59:26.192Z,54.60
2023-02-11T06:01:52.794Z,53.87
2023-02-11T06:04:19.361Z,52.93
2023-02-11T06:06:45.950Z,53.37
2023-02-11T06:09:12.548Z,53.17
2023-02-11T06:11:39.187Z,50.97
2023-02-11T06:14:05.935Z,52.97
2023-02-11T06:16:32.692Z,63.37
2023-02-11T06:18:59.371Z,55.80
2023-02-11T06:21:33.596Z,56.13
2023-02-11T06:24:07.260Z,56.30
2023-02-11T06:26:33.908Z,62.63
2023-02-11T06:29:01.197Z,56.90
2023-02-11T06:31:28.470Z,58.53
2023-02-11T06:33:55.077Z,59.40
2023-02-11T06:36:22.970Z,62.20
2023-02-11T06:38:50.225Z,61.07
2023-02-11T06:41:20.088Z,63.13
2023-02-11T06:43:47.131Z,59.70
2023-02-11T06:46:13.791Z,59.73
2023-02-11T06:48:41.651Z,65.67
2023-02-11T06:51:11.487Z,62.03
2023-02-11T06:53:41.498Z,64.17
2023-02-11T06:56:10.625Z,64.03
2023-02-11T06:58:37.612Z,58.63
2023-02-11T07:01:09.276Z,56.80
2023-02-11T07:03:37.216Z,62.23
2023-02-11T07:06:05.627Z,61.70
2023-02-11T07:08:36.823Z,58.67
2023-02-11T07:11:14.936Z,65.37
2023-02-11T07:13:41.680Z,64.20
2023-02-11T07:16:11.148Z,61.50
2023-02-11T07:18:37.859Z,61.50
2023-02-11T07:21:06.418Z,67.80
2023-02-11T07:23:33.684Z,65.87
2023-02-11T07:26:08.405Z,67.17
2023-02-11T07:28:36.849Z,64.73
2023-02-11T07:31:11.930Z,64.90
2023-02-11T07:33:39.145Z,65.73
2023-02-11T07:36:07.795Z,62.80
2023-02-11T07:38:35.620Z,61.67
2023-02-11T07:41:04.240Z,62.53
2023-02-11T07:43:31.769Z,59.87
2023-02-11T07:45:59.242Z,62.03
2023-02-11T07:48:25.831Z,61.40
2023-02-11T07:50:52.382Z,60.10
2023-02-11T07:53:18.974Z,60.80
2023-02-11T07:55:45.676Z,59.53
2023-02-11T07:58:12.298Z,58.03
2023-02-11T08:00:38.952Z,61.33
2023-02-11T08:03:08.264Z,56.13
2023-02-11T08:05:38.667Z,61.77
2023-02-11T08:08:05.271Z,58.60
2023-02-11T08:10:31.804Z,64.93
2023-02-11T08:12:58.528Z,60.43
2023-02-11T08:15:25.106Z,58.17
2023-02-11T08:17:51.686Z,60.80
2023-02-11T08:20:18.397Z,63.10
2023-02-11T08:22:44.945Z,58.73
2023-02-11T08:25:11.520Z,58.67
2023-02-11T08:27:38.157Z,62.17
2023-02-11T08:30:05.181Z,57.37
2023-02-11T08:32:34.156Z,62.03
2023-02-11T08:35:01.175Z,64.23
2023-02-11T08:37:27.868Z,62.63
2023-02-11T08:39:54.540Z,64.53
2023-02-11T08:42:21.076Z,55.07
2023-02-11T08:44:47.628Z,65.53
2023-02-11T08:47:14.736Z,64.50
2023-02-11T08:49:44.771Z,61.53
2023-02-11T08:52:11.636Z,67.60
2023-02-11T08:54:38.245Z,64.37
2023-02-11T08:57:05.323Z,66.63
2023-02-11T08:59:31.942Z,64.20
2023-02-11T09:01:58.608Z,59.27
2023-02-11T09:04:25.382Z,58.20
2023-02-11T09:06:51.997Z,56.77
2023-02-11T09:09:18.596Z,60.30
2023-02-11T09:11:46.043Z,57.90
2023-02-11T09:14:20.350Z,58.20
2023-02-11T09:16:48.498Z,58.33
2023-02-11T09:19:15.526Z,58.47
2023-02-11T09:21:42.099Z,56.27
2023-02-11T09:24:08.726Z,60.83
2023-02-11T09:26:36.560Z,56.60
2023-02-11T09:29:04.805Z,56.97
2023-02-11T09:31:33.157Z,56.73
2023-02-11T09:34:05.422Z,56.63
2023-02-11T09:36:34.835Z,56.33
2023-02-11T09:39:02.979Z,65.13
2023-02-11T09:41:59.544Z,57.43
2023-02-11T09:44:35.094Z,52.50
2023-02-11T09:47:13.046Z,55.33
2023-02-11T09:49:50.689Z,52.20
2023-02-11T09:52:29.953Z,58.10
2023-02-11T09:54:59.164Z,57.63
2023-02-11T09:57:31.484Z,57.10
2023-02-11T09:59:58.195Z,60.33
2023-02-11T10:02:37.968Z,57.03
2023-02-11T10:05:22.099Z,55.70
2023-02-11T10:08:19.612Z,56.70
2023-02-11T10:10:57.656Z,57.83
2023-02-11T10:13:50.910Z,53.17
2023-02-11T10:16:36.398Z,58.17
2023-02-11T10:19:11.407Z,58.77
2023-02-11T10:21:59.939Z,54.17
2023-02-11T10:24:28.954Z,56.97
2023-02-11T10:26:55.603Z,57.20
2023-02-11T10:29:43.627Z,56.63
2023-02-11T10:32:50.029Z,57.53
2023-02-11T10:35:21.187Z,58.20
2023-02-11T10:37:48.243Z,63.33
2023-02-11T10:40:21.728Z,60.80
2023-02-11T10:42:55.807Z,55.27
2023-02-11T10:45:40.328Z,55.83
2023-02-11T10:48:38.106Z,59.07
2023-02-11T10:51:23.878Z,58.43
2023-02-11T10:54:07.873Z,61.73
2023-02-11T10:56:37.291Z,58.00
2023-02-11T10:59:29.088Z,61.67
2023-02-11T11:02:21.104Z,56.60
2023-02-11T11:04:48.454Z,65.17
2023-02-11T11:07:27.980Z,58.40
2023-02-11T11:10:06.332Z,58.20
2023-02-11T11:12:47.369Z,56.63
2023-02-11T11:15:21.908Z,53.10
2023-02-11T11:18:20.820Z,55.50
2023-02-11T11:21:24.830Z,60.93
2023-02-11T11:23:58.410Z,54.47
2023-02-11T11:26:28.708Z,59.20
2023-02-11T11:29:01.013Z,56.20
2023-02-11T11:31:35.499Z,49.87
2023-02-11T11:34:34.786Z,50.30
2023-02-11T11:37:14.908Z,46.87
2023-02-11T11:39:41.781Z,50.90
2023-02-11T11:42:28.751Z,49.83
2023-02-11T11:45:00.999Z,50.53
2023-02-11T11:47:34.841Z,47.27
2023-02-11T11:50:25.952Z,46.90
2023-02-11T11:53:17.602Z,42.67
2023-02-11T11:55:59.755Z,45.10
2023-02-11T11:58:30.168Z,47.43
2023-02-11T12:01:37.525Z,47.80
2023-02-11T12:04:41.949Z,41.80
2023-02-11T12:07:30.135Z,38.83
2023-02-11T12:10:21.251Z,44.00
2023-02-11T12:13:24.808Z,46.50
2023-02-11T12:16:07.815Z,40.23
2023-02-11T12:18:47.860Z,41.17
2023-02-11T12:21:38.941Z,39.70
2023-02-11T12:24:30.974Z,39.30
2023-02-11T12:27:13.644Z,39.47
2023-02-11T12:29:48.730Z,33.50
2023-02-11T12:32:39.151Z,34.40
2023-02-11T12:35:42.994Z,30.60
2023-02-11T12:38:26.126Z,36.30
2023-02-11T12:41:50.708Z,34.23
2023-02-11T12:44:49.040Z,32.43
2023-02-11T12:47:28.017Z,30.50
2023-02-11T12:50:20.587Z,32.77
2023-02-11T12:53:17.511Z,31.63
2023-02-11T12:55:48.938Z,33.67
2023-02-11T12:58:25.433Z,34.20
2023-02-11T13:01:04.435Z,33.93
2023-02-11T13:03:55.439Z,30.73
2023-02-11T13:06:35.992Z,30.07
2023-02-11T13:09:10.070Z,30.23
2023-02-11T13:11:43.274Z,31.60
2023-02-11T13:14:21.964Z,29.20
2023-02-11T13:16:50.694Z,31.10
2023-02-11T13:19:24.798Z,30.00
2023-02-11T13:22:17.232Z,31.30
2023-02-11T13:24:50.891Z,29.87
2023-02-11T13:27:42.969Z,30.70
2023-02-11T13:30:24.677Z,23.57
2023-02-11T13:32:55.853Z,29.07
2023-02-11T13:35:37.684Z,25.93
2023-02-11T13:38:22.633Z,31.20
2023-02-11T13:41:00.864Z,30.80
2023-02-11T13:43:29.194Z,26.93
2023-02-11T13:46:10.025Z,28.37
2023-02-11T13:48:39.676Z,27.57
2023-02-11T13:51:09.962Z,28.43
2023-02-11T13:53:47.327Z,27.00
2023-02-11T13:56:32.023Z,23.10
2023-02-11T13:59:02.112Z,23.80
2023-02-11T14:01:42.671Z,26.10
2023-02-11T14:04:43.424Z,29.07
2023-02-11T14:07:45.743Z,24.17
2023-02-11T14:10:43.334Z,20.37
2023-02-11T14:13:27.454Z,23.87
2023-02-11T14:16:10.752Z,23.20
2023-02-11T14:18:49.530Z,23.73
2023-02-11T14:21:31.015Z,21.53
2023-02-11T14:24:10.855Z,27.47
2023-02-11T14:26:59.057Z,23.00
2023-02-11T14:29:48.192Z,21.43
2023-02-11T14:32:50.699Z,19.83
2023-02-11T14:35:41.761Z,24.90
2023-02-11T14:38:29.296Z,22.60
2023-02-11T14:41:14.828Z,21.03
2023-02-11T14:43:48.589Z,22.27
2023-02-11T14:46:17.469Z,23.17
2023-02-11T14:48:48.601Z,19.77
2023-02-11T14:51:18.302Z,20.30
2023-02-11T14:53:49.530Z,18.57
2023-02-11T14:56:26.367Z,21.93
2023-02-11T14:58:54.796Z,18.40
2023-02-11T15:01:35.220Z,19.33
2023-02-11T15:04:04.291Z,21.80
2023-02-11T15:06:34.126Z,18.47
2023-02-11T15:09:05.863Z,19.17
2023-02-11T15:11:40.649Z,16.53
2023-02-11T15:14:15.149Z,16.30
2023-02-11T15:16:45.606Z,16.60
2023-02-11T15:19:31.786Z,15.83
2023-02-11T15:22:02.935Z,17.27
2023-02-11T15:24:32.679Z,19.47
2023-02-11T15:27:03.987Z,15.77
2023-02-11T15:29:38.111Z,16.00
2023-02-11T15:32:15.452Z,15.63
2023-02-11T15:34:43.389Z,17.10
2023-02-11T15:37:36.494Z,13.33
2023-02-11T15:40:32.280Z,17.57
2023-02-11T15:43:10.549Z,15.63
2023-02-11T15:45:53.118Z,13.80
2023-02-11T15:48:31.869Z,15.93
2023-02-11T15:51:08.385Z,14.07
2023-02-11T15:53:43.070Z,14.03
2023-02-11T15:56:24.273Z,14.97
2023-02-11T15:58:52.530Z,15.20
2023-02-11T16:01:19.183Z,14.30
2023-02-11T16:03:50.427Z,15.03
2023-02-11T16:06:36.103Z,12.13
2023-02-11T16:09:24.180Z,16.33
2023-02-11T16:11:50.734Z,12.93
2023-02-11T16:14:23.617Z,12.73
2023-02-11T16:16:52.857Z,13.10
2023-02-11T16:19:25.594Z,13.87
2023-02-11T16:21:54.149Z,11.67
2023-02-11T16:24:29.563Z,13.37
2023-02-11T16:26:59.877Z,13.80
2023-02-11T16:29:32.467Z,14.10
2023-02-11T16:32:15.371Z,12.03
2023-02-11T16:34:42.323Z,13.33
2023-02-11T16:37:09.054Z,11.97
2023-02-11T16:39:36.341Z,13.60
2023-02-11T16:42:05.198Z,10.63
2023-02-11T16:44:33.951Z,11.43
2023-02-11T16:47:03.205Z,13.17
2023-02-11T16:49:40.492Z,13.20
2023-02-11T16:52:12.273Z,10.40
2023-02-11T16:54:39.241Z,10.70
2023-02-11T16:57:16.987Z,9.57
2023-02-11T16:59:44.283Z,9.87
2023-02-11T17:02:25.791Z,8.50
2023-02-11T17:04:53.819Z,9.00
2023-02-11T17:07:20.564Z,9.17
2023-02-11T17:09:47.140Z,8.83
2023-02-11T17:12:14.122Z,10.37
2023-02-11T17:14:40.767Z,12.27
2023-02-11T17:17:07.968Z,10.30
2023-02-11T17:19:34.701Z,9.40
2023-02-11T17:22:01.432Z,8.87
2023-02-11T17:24:28.019Z,10.47
2023-02-11T17:26:54.922Z,9.03
2023-02-11T17:29:24.465Z,10.00
2023-02-11T17:31:52.912Z,9.77
2023-02-11T17:34:21.153Z,8.70
2023-02-11T17:36:47.895Z,10.47
2023-02-11T17:39:14.514Z,10.67
2023-02-11T17:41:41.745Z,10.07
2023-02-11T17:44:10.629Z,10.67
2023-02-11T17:46:37.334Z,9.20
2023-02-11T17:49:04.411Z,11.13
2023-02-11T17:51:33.716Z,8.73
2023-02-11T17:54:03.887Z,9.17
2023-02-11T17:56:33.315Z,10.13
2023-02-11T17:59:02.286Z,9.80
2023-02-11T18:01:33.263Z,8.10
2023-02-11T18:04:00.183Z,10.27
2023-02-11T18:06:28.977Z,9.90
2023-02-11T18:09:01.809Z,9.20
2023-02-11T18:11:30.392Z,8.80
2023-02-11T18:13:59.734Z,8.33
2023-02-11T18:16:28.635Z,8.37
2023-02-11T18:18:57.045Z,7.90
2023-02-11T18:21:24.503Z,10.17
2023-02-11T18:23:51.371Z,9.77
2023-02-11T18:26:20.068Z,10.07
2023-02-11T18:28:46.800Z,8.73
2023-02-11T18:31:14.090Z,8.30
2023-02-11T18:33:42.575Z,8.93
2023-02-11T18:36:12.648Z,9.33
2023-02-11T18:38:40.455Z,11.30
2023-02-11T18:41:07.686Z,12.77
2023-02-11T18:43:35.176Z,11.50
2023-02-11T18:46:06.910Z,11.13
2023-02-11T18:48:33.576Z,9.07
2023-02-11T18:51:00.224Z,8.70
2023-02-11T18:53:27.003Z,9.17
2023-02-11T18:55:54.440Z,8.47
2023-02-11T18:58:21.403Z,9.20
2023-02-11T19:00:49.619Z,8.47
2023-02-11T19:03:16.816Z,8.87
2023-02-11T19:05:49.050Z,8.23
2023-02-11T19:08:16.988Z,8.97
2023-02-11T19:10:46.568Z,7.57
2023-02-11T19:13:13.753Z,7.87
2023-02-11T19:15:45.299Z,7.10
2023-02-11T19:18:13.898Z,7.73
2023-02-11T19:20:44.352Z,7.90
2023-02-11T19:23:11.387Z,8.57
2023-02-11T19:25:44.156Z,7.17
2023-02-11T19:28:10.747Z,9.27
2023-02-11T19:30:37.431Z,8.43
2023-02-11T19:33:04.004Z,7.97
2023-02-11T19:35:32.971Z,10.30
2023-02-11T19:37:59.520Z,8.93
2023-02-11T19:40:26.261Z,10.80
2023-02-11T19:42:52.878Z,9.37
2023-02-11T19:45:19.536Z,10.37
2023-02-11T19:47:46.344Z,9.13
2023-02-11T19:50:15.415Z,8.97
2023-02-11T19:52:41.968Z,10.63
2023-02-11T19:55:08.687Z,10.50
2023-02-11T19:57:36.389Z,12.53
2023-02-11T20:00:04.543Z,10.87
2023-02-11T20:02:32.521Z,10.70
2023-02-11T20:04:59.144Z,9.87
2023-02-11T20:07:25.685Z,9.73
2023-02-11T20:09:53.702Z,11.07
2023-02-11T20:12:20.297Z,11.20
2023-02-11T20:14:46.862Z,9.63
2023-02-11T20:17:13.440Z,9.90
2023-02-11T20:19:40.035Z,11.77
2023-02-11T20:22:06.770Z,11.67
2023-02-11T20:24:33.351Z,10.07
2023-02-11T20:26:59.964Z,10.73
2023-02-11T20:29:27.375Z,11.10
2023-02-11T20:31:54.322Z,13.87
2023-02-11T20:34:21.919Z,11.90
2023-02-11T20:36:52.997Z,11.57
2023-02-11T20:39:22.194Z,10.37
2023-02-11T20:41:49.787Z,13.20
2023-02-11T20:44:16.638Z,13.50
2023-02-11T20:46:46.430Z,9.37
2023-02-11T20:49:15.582Z,10.67
2023-02-11T20:51:42.763Z,10.43
2023-02-11T20:54:15.721Z,10.30
2023-02-11T20:56:42.449Z,10.03
2023-02-11T20:59:09.794Z,10.57
2023-02-11T21:01:42.086Z,10.10
2023-02-11T21:04:15.193Z,10.73
2023-02-11T21:06:44.804Z,9.27
2023-02-11T21:09:14.407Z,9.27
2023-02-11T21:11:41.873Z,12.03
2023-02-11T21:14:09.998Z,14.30
2023-02-11T21:16:37.028Z,11.37
2023-02-11T21:19:03.903Z,9.23
2023-02-11T21:21:31.410Z,13.47
2023-02-11T21:23:58.655Z,9.90
2023-02-11T21:26:25.369Z,11.57
2023-02-11T21:28:52.141Z,10.07
2023-02-11T21:31:27.160Z,9.50
2023-02-11T21:33:59.300Z,12.80
2023-02-11T21:36:27.593Z,11.53
2023-02-11T21:38:54.451Z,8.40
2023-02-11T21:41:22.450Z,9.43
2023-02-11T21:43:50.095Z,9.77
2023-02-11T21:46:17.778Z,9.63
2023-02-11T21:48:44.468Z,9.33
2023-02-11T21:51:17.333Z,9.00
2023-02-11T21:53:44.006Z,10.87
2023-02-11T21:56:13.699Z,11.57
2023-02-11T21:58:40.459Z,15.33
2023-02-11T22:01:14.971Z,13.07
2023-02-11T22:03:42.356Z,11.40
2023-02-11T22:06:14.952Z,12.10
2023-02-11T22:08:41.889Z,10.87
2023-02-11T22:11:11.367Z,10.43
2023-02-11T22:13:42.304Z,15.63
2023-02-11T22:16:12.079Z,11.97
2023-02-11T22:18:39.340Z,14.23
2023-02-11T22:21:17.407Z,11.20
2023-02-11T22:23:44.741Z,12.63
2023-02-11T22:26:17.784Z,14.10
2023-02-11T22:28:45.663Z,10.60
2023-02-11T22:31:17.802Z,11.73
2023-02-11T22:33:44.931Z,10.57
2023-02-11T22:36:17.707Z,14.10
2023-02-11T22:38:44.363Z,12.03
2023-02-11T22:41:12.264Z,14.37
2023-02-11T22:43:42.067Z,12.37
2023-02-11T22:46:10.930Z,13.57
2023-02-11T22:48:37.553Z,12.43
2023-02-11T22:51:10.013Z,13.07
2023-02-11T22:53:36.938Z,12.67
2023-02-11T22:56:05.449Z,15.77
2023-02-11T22:58:32.220Z,10.20
2023-02-11T23:01:02.040Z,12.83
2023-02-11T23:03:29.248Z,15.00
2023-02-11T23:05:58.144Z,13.80
2023-02-11T23:08:25.734Z,14.70
2023-02-11T23:10:52.592Z,15.13
2023-02-11T23:13:20.637Z,13.23
2023-02-11T23:15:47.498Z,12.97
2023-02-11T23:18:14.753Z,14.53
2023-02-11T23:20:44.225Z,12.83
2023-02-11T23:23:10.800Z,12.73
2023-02-11T23:25:44.737Z,17.97
2023-02-11T23:28:12.292Z,12.27
2023-02-11T23:30:39.290Z,14.63
2023-02-11T23:33:05.982Z,15.87
2023-02-11T23:35:32.804Z,12.97
2023-02-11T23:37:59.361Z,12.40
2023-02-11T23:40:25.906Z,12.93
2023-02-11T23:42:52.468Z,15.10
2023-02-11T23:45:19.027Z,18.97
2023-02-11T23:47:45.737Z,14.30
2023-02-11T23:50:12.411Z,19.47
2023-02-11T23:52:39.029Z,20.27
2023-02-11T23:55:05.966Z,15.03
2023-02-11T23:57:33.492Z,15.73
